Time;durP1;ratioP1;P1;durP2;ratioP2;P2;SDS_P1;SDS_P2;PMS_P1;PMS_P2;Temp;Humidity;BMP_temperature;BMP_pressure;BME280_temperature;BME280_humidity;BME280_pressure;Samples;Min_cycle;Max_cycle;Signal;HPM_P1;HPM_P2
2021/12/22 00:00:11;;;;;;;22.48;9.65;;;;;;;;;;5031749;28;20026;-62
2021/12/22 00:02:39;;;;;;;22.60;9.95;;;;;;;;;;5031735;28;20024;-61
2021/12/22 00:05:05;;;;;;;30.10;10.73;;;;;;;;;;5031452;28;20022;-61
2021/12/22 00:07:32;;;;;;;36.60;14.95;;;;;;;;;;5035318;28;20108;-62
2021/12/22 00:09:58;;;;;;;39.05;15.57;;;;;;;;;;5035273;28;20016;-62
2021/12/22 00:12:24;;;;;;;35.55;16.65;;;;;;;;;;5035198;28;20013;-62
2021/12/22 00:14:50;;;;;;;33.58;15.30;;;;;;;;;;5035129;28;20017;-62
2021/12/22 00:17:16;;;;;;;45.83;17.77;;;;;;;;;;5034826;28;20018;-62
2021/12/22 00:19:42;;;;;;;47.00;19.92;;;;;;;;;;5035427;28;20026;-62
2021/12/22 00:22:08;;;;;;;58.30;23.25;;;;;;;;;;5035034;28;20030;-61
2021/12/22 00:24:35;;;;;;;68.32;25.58;;;;;;;;;;5034813;28;20055;-62
2021/12/22 00:27:01;;;;;;;79.65;30.20;;;;;;;;;;5035226;28;20100;-61
2021/12/22 00:29:27;;;;;;;113.25;44.75;;;;;;;;;;5035169;28;20040;-60
2021/12/22 00:32:15;;;;;;;82.00;31.50;;;;;;;;;;5034788;28;20022;-60
2021/12/22 00:34:53;;;;;;;91.55;35.55;;;;;;;;;;5032158;28;20025;-63
2021/12/22 00:37:27;;;;;;;87.82;34.40;;;;;;;;;;5033112;28;20029;-62
2021/12/22 00:39:53;;;;;;;85.15;32.65;;;;;;;;;;5031940;28;20061;-62
2021/12/22 00:42:21;;;;;;;127.07;44.25;;;;;;;;;;5034903;28;20076;-62
2021/12/22 00:44:50;;;;;;;126.38;45.78;;;;;;;;;;5034543;28;20356;-60
2021/12/22 00:47:17;;;;;;;99.25;38.80;;;;;;;;;;5034084;28;20013;-60
2021/12/22 00:49:44;;;;;;;102.20;42.03;;;;;;;;;;5034519;28;20052;-60
2021/12/22 00:52:10;;;;;;;138.45;52.35;;;;;;;;;;5034341;28;20079;-61
2021/12/22 00:54:36;;;;;;;117.07;42.20;;;;;;;;;;5034369;28;20014;-60
2021/12/22 00:57:05;;;;;;;123.78;45.50;;;;;;;;;;5034372;28;20018;-62
2021/12/22 00:59:32;;;;;;;113.18;43.50;;;;;;;;;;5033626;28;20032;-60
2021/12/22 01:01:58;;;;;;;115.25;41.78;;;;;;;;;;5034528;28;20052;-60
2021/12/22 01:04:24;;;;;;;106.35;41.65;;;;;;;;;;5034481;28;20463;-60
2021/12/22 01:06:50;;;;;;;85.32;35.38;;;;;;;;;;5032850;28;20106;-61
2021/12/22 01:09:16;;;;;;;88.47;34.83;;;;;;;;;;5034132;28;20031;-60
2021/12/22 01:11:43;;;;;;;60.53;25.23;;;;;;;;;;5034140;28;20091;-60
2021/12/22 01:14:09;;;;;;;77.50;31.88;;;;;;;;;;5034246;28;20036;-60
2021/12/22 01:16:35;;;;;;;88.35;35.33;;;;;;;;;;5033895;28;20025;-61
2021/12/22 01:19:06;;;;;;;78.28;33.88;;;;;;;;;;5033873;28;20378;-60
2021/12/22 01:21:46;;;;;;;79.57;33.10;;;;;;;;;;5033985;28;20105;-61
2021/12/22 01:27:10;;;;;;;76.43;32.53;;;;;;;;;;5027884;28;20030;-60
2021/12/22 01:29:37;;;;;;;80.95;31.98;;;;;;;;;;5034051;28;20067;-60
2021/12/22 01:32:04;;;;;;;87.15;33.45;;;;;;;;;;5033807;28;20028;-60
2021/12/22 01:34:30;;;;;;;64.85;28.25;;;;;;;;;;5033587;28;20052;-60
2021/12/22 01:36:57;;;;;;;101.03;37.17;;;;;;;;;;5033948;28;20034;-63
2021/12/22 01:39:23;;;;;;;82.60;33.13;;;;;;;;;;5033518;28;20037;-60
2021/12/22 01:41:49;;;;;;;80.97;31.58;;;;;;;;;;5033194;28;20499;-61
2021/12/22 01:44:45;;;;;;;93.38;35.38;;;;;;;;;;5033510;28;20388;-61
2021/12/22 01:49:56;;;;;;;89.57;35.13;;;;;;;;;;5030840;28;20113;-61
2021/12/22 01:52:22;;;;;;;99.72;36.40;;;;;;;;;;5033564;28;20014;-61
2021/12/22 01:55:03;;;;;;;86.05;34.20;;;;;;;;;;5032999;28;20033;-61
2021/12/22 01:57:30;;;;;;;81.35;33.08;;;;;;;;;;5033214;28;20554;-60
2021/12/22 01:59:56;;;;;;;96.03;34.40;;;;;;;;;;5033488;28;20032;-61
2021/12/22 02:02:22;;;;;;;95.95;36.50;;;;;;;;;;5033088;28;20018;-61
2021/12/22 02:04:48;;;;;;;79.88;32.67;;;;;;;;;;5033396;28;20593;-61
2021/12/22 02:07:15;;;;;;;86.32;34.08;;;;;;;;;;5032870;28;20022;-60
2021/12/22 02:12:29;;;;;;;74.15;32.10;;;;;;;;;;5032277;28;20040;-60
2021/12/22 02:14:55;;;;;;;77.28;32.83;;;;;;;;;;5030666;28;20025;-61
2021/12/22 02:17:21;;;;;;;88.80;34.72;;;;;;;;;;5032523;28;20013;-61
2021/12/22 02:19:49;;;;;;;72.85;30.73;;;;;;;;;;5032865;28;20479;-61
2021/12/22 02:22:16;;;;;;;80.45;31.08;;;;;;;;;;5030188;28;20018;-62
2021/12/22 02:24:55;;;;;;;65.20;28.50;;;;;;;;;;5032702;28;20044;-61
2021/12/22 02:27:32;;;;;;;58.70;24.00;;;;;;;;;;5031404;28;20022;-60
2021/12/22 02:30:02;;;;;;;77.70;28.00;;;;;;;;;;5029649;28;20033;-62
2021/12/22 02:35:01;;;;;;;58.53;24.05;;;;;;;;;;5030329;28;20030;-61
2021/12/22 02:37:27;;;;;;;53.50;21.95;;;;;;;;;;5032198;28;20541;-62
2021/12/22 02:40:00;;;;;;;51.63;19.73;;;;;;;;;;5031314;28;20104;-61
2021/12/22 02:42:33;;;;;;;42.65;19.10;;;;;;;;;;5032789;28;20464;-61
2021/12/22 02:45:11;;;;;;;44.78;16.92;;;;;;;;;;5030184;28;20510;-61
2021/12/22 02:47:37;;;;;;;42.28;16.65;;;;;;;;;;5030323;28;20031;-61
2021/12/22 02:50:06;;;;;;;44.65;18.50;;;;;;;;;;5032570;28;20468;-60
2021/12/22 02:52:45;;;;;;;35.65;14.25;;;;;;;;;;5032451;28;20021;-61
2021/12/22 02:55:11;;;;;;;32.70;13.20;;;;;;;;;;5032301;28;20024;-60
2021/12/22 02:57:43;;;;;;;33.60;13.80;;;;;;;;;;5032061;28;20515;-60
2021/12/22 03:03:00;;;;;;;26.38;12.02;;;;;;;;;;5032102;28;19992;-60
2021/12/22 03:05:28;;;;;;;34.22;12.60;;;;;;;;;;5031021;28;20028;-61
2021/12/22 03:07:54;;;;;;;28.25;12.38;;;;;;;;;;5029696;28;20380;-61
2021/12/22 03:10:21;;;;;;;29.65;12.57;;;;;;;;;;5031985;28;20429;-62
2021/12/22 03:12:51;;;;;;;22.75;10.43;;;;;;;;;;5031715;28;20083;-61
2021/12/22 03:15:18;;;;;;;28.60;12.85;;;;;;;;;;5030186;28;20109;-61
2021/12/22 03:17:44;;;;;;;28.52;13.23;;;;;;;;;;5032224;28;20025;-61
2021/12/22 03:20:13;;;;;;;26.17;11.13;;;;;;;;;;5031334;28;20632;-62
2021/12/22 03:22:42;;;;;;;32.08;12.43;;;;;;;;;;5032189;28;20105;-61
2021/12/22 03:25:14;;;;;;;33.05;14.07;;;;;;;;;;5032095;28;20124;-61
2021/12/22 03:27:40;;;;;;;32.75;13.15;;;;;;;;;;5031635;28;20026;-61
2021/12/22 03:30:07;;;;;;;26.38;12.05;;;;;;;;;;5032178;28;20530;-63
2021/12/22 03:32:33;;;;;;;22.90;10.98;;;;;;;;;;5031672;28;20013;-61
2021/12/22 03:34:59;;;;;;;35.78;14.77;;;;;;;;;;5032060;28;20032;-61
2021/12/22 03:37:26;;;;;;;30.38;12.95;;;;;;;;;;5032074;28;20029;-61
2021/12/22 03:39:52;;;;;;;37.20;13.00;;;;;;;;;;5032778;28;20045;-61
2021/12/22 03:42:18;;;;;;;35.78;13.25;;;;;;;;;;5035775;28;20093;-61
2021/12/22 03:44:45;;;;;;;33.20;13.55;;;;;;;;;;5035682;28;20030;-61
2021/12/22 03:47:11;;;;;;;31.75;12.63;;;;;;;;;;5035657;28;20029;-62
2021/12/22 03:49:37;;;;;;;26.45;12.77;;;;;;;;;;5036216;28;20327;-62
2021/12/22 03:52:04;;;;;;;29.50;11.50;;;;;;;;;;5036241;28;20045;-62
2021/12/22 03:54:31;;;;;;;28.23;11.13;;;;;;;;;;5035829;28;20025;-61
2021/12/22 03:56:58;;;;;;;34.92;11.85;;;;;;;;;;5035965;28;20043;-61
2021/12/22 03:59:24;;;;;;;35.42;12.43;;;;;;;;;;5035579;28;20364;-61
2021/12/22 04:01:51;;;;;;;25.33;11.30;;;;;;;;;;5035104;28;20091;-62
2021/12/22 04:04:18;;;;;;;28.02;9.98;;;;;;;;;;5035485;28;20032;-62
2021/12/22 04:06:46;;;;;;;30.50;10.50;;;;;;;;;;5035507;28;20033;-61
2021/12/22 04:09:15;;;;;;;22.95;10.75;;;;;;;;;;5034914;28;20032;-62
2021/12/22 04:11:41;;;;;;;20.25;10.65;;;;;;;;;;5035212;28;20028;-62
2021/12/22 04:14:07;;;;;;;30.10;12.40;;;;;;;;;;5035426;28;20017;-62
2021/12/22 04:16:34;;;;;;;25.48;12.82;;;;;;;;;;5034822;28;20391;-62
2021/12/22 04:19:00;;;;;;;33.75;13.40;;;;;;;;;;5035318;28;20075;-62
2021/12/22 04:21:26;;;;;;;35.15;15.57;;;;;;;;;;5035323;28;20021;-61
2021/12/22 04:23:52;;;;;;;31.00;12.95;;;;;;;;;;5034798;28;20056;-62
2021/12/22 04:26:19;;;;;;;39.85;14.07;;;;;;;;;;5035150;28;20422;-62
2021/12/22 04:28:45;;;;;;;86.38;30.95;;;;;;;;;;5034900;28;20025;-62
2021/12/22 04:31:11;;;;;;;51.00;20.35;;;;;;;;;;5034831;28;20017;-63
2021/12/22 04:33:37;;;;;;;37.35;14.57;;;;;;;;;;5034849;28;20021;-62
2021/12/22 04:36:04;;;;;;;73.55;32.63;;;;;;;;;;5034822;28;20056;-62
2021/12/22 04:38:30;;;;;;;45.17;17.30;;;;;;;;;;5034576;28;20033;-62
2021/12/22 04:40:56;;;;;;;27.35;13.45;;;;;;;;;;5034939;28;20472;-62
2021/12/22 04:43:22;;;;;;;41.58;13.82;;;;;;;;;;5034409;28;20529;-62
2021/12/22 04:45:48;;;;;;;31.77;14.13;;;;;;;;;;5034868;28;20053;-62
2021/12/22 04:48:15;;;;;;;40.13;17.35;;;;;;;;;;5034993;28;20391;-62
2021/12/22 04:50:41;;;;;;;38.40;15.82;;;;;;;;;;5034526;28;20480;-62
2021/12/22 04:55:37;;;;;;;37.13;16.20;;;;;;;;;;5031947;28;20578;-62
2021/12/22 04:58:03;;;;;;;34.03;15.77;;;;;;;;;;5034306;28;20025;-62
2021/12/22 05:00:31;;;;;;;33.80;13.82;;;;;;;;;;5034619;28;20419;-62
2021/12/22 05:02:58;;;;;;;41.85;18.02;;;;;;;;;;5032224;28;20024;-61
2021/12/22 05:05:24;;;;;;;42.58;18.45;;;;;;;;;;5034537;28;20530;-61
2021/12/22 05:07:51;;;;;;;44.55;18.55;;;;;;;;;;5034385;28;20025;-62
2021/12/22 05:10:19;;;;;;;56.90;19.63;;;;;;;;;;5034446;28;20041;-62
2021/12/22 05:12:46;;;;;;;41.55;18.38;;;;;;;;;;5034129;28;20033;-60
2021/12/22 05:15:13;;;;;;;51.55;22.15;;;;;;;;;;5034304;28;20045;-61
2021/12/22 05:20:12;;;;;;;51.38;21.33;;;;;;;;;;5033978;28;20487;-61
2021/12/22 05:22:38;;;;;;;45.25;20.35;;;;;;;;;;5034286;28;20028;-61
2021/12/22 05:25:05;;;;;;;55.95;23.33;;;;;;;;;;5033927;28;20120;-62
2021/12/22 05:27:32;;;;;;;56.45;22.13;;;;;;;;;;5034051;28;20014;-61
2021/12/22 05:29:58;;;;;;;56.20;22.67;;;;;;;;;;5033897;28;20456;-60
2021/12/22 05:32:30;;;;;;;55.88;21.95;;;;;;;;;;5033456;28;20079;-60
2021/12/22 05:34:56;;;;;;;48.13;21.77;;;;;;;;;;5031583;28;20083;-61
2021/12/22 05:37:23;;;;;;;52.05;22.15;;;;;;;;;;5034077;28;20028;-60
2021/12/22 05:39:49;;;;;;;57.72;21.50;;;;;;;;;;5033685;28;20029;-61
2021/12/22 05:42:15;;;;;;;47.80;21.10;;;;;;;;;;5031166;28;20009;-63
2021/12/22 05:44:42;;;;;;;55.13;21.75;;;;;;;;;;5033627;28;20097;-62
2021/12/22 05:47:08;;;;;;;65.13;28.85;;;;;;;;;;5033318;28;20532;-61
2021/12/22 05:49:35;;;;;;;56.38;24.25;;;;;;;;;;5033359;28;20027;-61
2021/12/22 05:52:01;;;;;;;70.72;30.02;;;;;;;;;;5033470;28;20013;-62
2021/12/22 05:54:28;;;;;;;98.05;39.60;;;;;;;;;;5033386;28;20017;-61
2021/12/22 05:56:54;;;;;;;82.70;31.73;;;;;;;;;;5033500;28;20021;-62
2021/12/22 05:59:20;;;;;;;76.45;29.00;;;;;;;;;;5033576;28;20483;-62
2021/12/22 06:01:46;;;;;;;119.10;46.70;;;;;;;;;;5033137;28;20033;-63
2021/12/22 06:04:12;;;;;;;87.57;35.58;;;;;;;;;;5033312;28;20030;-62
2021/12/22 06:06:38;;;;;;;179.32;68.63;;;;;;;;;;5033350;28;20040;-64
2021/12/22 06:09:05;;;;;;;203.68;78.72;;;;;;;;;;5032904;28;20123;-61
2021/12/22 06:11:31;;;;;;;117.45;48.65;;;;;;;;;;5032981;28;20387;-61
2021/12/22 06:13:58;;;;;;;204.02;83.40;;;;;;;;;;5033178;28;20097;-62
2021/12/22 06:16:24;;;;;;;114.20;42.63;;;;;;;;;;5032599;28;20039;-59
2021/12/22 06:18:57;;;;;;;138.98;62.50;;;;;;;;;;5033077;28;20029;-62
2021/12/22 06:21:23;;;;;;;258.45;114.93;;;;;;;;;;5033061;28;20017;-60
2021/12/22 06:23:50;;;;;;;120.22;51.08;;;;;;;;;;5032903;28;20095;-60
2021/12/22 06:26:16;;;;;;;139.57;62.47;;;;;;;;;;5032828;28;20044;-62
2021/12/22 06:28:42;;;;;;;108.35;46.78;;;;;;;;;;5032744;28;20472;-62
2021/12/22 06:31:08;;;;;;;127.50;55.45;;;;;;;;;;5031796;28;20372;-62
2021/12/22 06:33:35;;;;;;;202.93;82.70;;;;;;;;;;5032905;28;20033;-61
2021/12/22 06:36:01;;;;;;;158.68;64.53;;;;;;;;;;5032261;28;20072;-61
2021/12/22 06:38:27;;;;;;;279.35;114.05;;;;;;;;;;5032882;28;20075;-62
2021/12/22 06:40:53;;;;;;;110.78;47.15;;;;;;;;;;5032503;28;20472;-61
2021/12/22 06:43:19;;;;;;;93.53;39.55;;;;;;;;;;5032428;28;20017;-61
2021/12/22 06:45:46;;;;;;;103.32;44.78;;;;;;;;;;5032794;28;20114;-63
2021/12/22 06:48:12;;;;;;;71.10;31.48;;;;;;;;;;5032647;28;20026;-60
2021/12/22 06:50:38;;;;;;;63.05;27.50;;;;;;;;;;5032587;28;20036;-61
2021/12/22 06:53:04;;;;;;;57.45;22.85;;;;;;;;;;5032659;28;20430;-62
2021/12/22 06:55:30;;;;;;;70.53;26.70;;;;;;;;;;5032499;28;20057;-61
2021/12/22 06:57:58;;;;;;;78.90;32.65;;;;;;;;;;5031962;28;20017;-62
2021/12/22 07:00:24;;;;;;;100.32;39.08;;;;;;;;;;5032561;28;20029;-62
2021/12/22 07:02:53;;;;;;;81.63;32.13;;;;;;;;;;5032867;28;20375;-63
2021/12/22 07:05:21;;;;;;;81.57;34.00;;;;;;;;;;5032248;28;20025;-63
2021/12/22 07:07:47;;;;;;;67.95;28.50;;;;;;;;;;5032307;28;20021;-62
2021/12/22 07:10:24;;;;;;;75.47;31.13;;;;;;;;;;5032536;28;20017;-61
2021/12/22 07:12:52;;;;;;;79.97;34.65;;;;;;;;;;5033223;28;20472;-61
2021/12/22 07:15:19;;;;;;;67.32;32.45;;;;;;;;;;5031074;28;20472;-62
2021/12/22 07:17:47;;;;;;;85.90;38.70;;;;;;;;;;5031106;28;20067;-62
2021/12/22 07:20:13;;;;;;;71.05;29.67;;;;;;;;;;5031202;28;20028;-61
2021/12/22 07:22:39;;;;;;;67.07;30.30;;;;;;;;;;5033419;28;20024;-63
2021/12/22 07:25:06;;;;;;;57.90;28.48;;;;;;;;;;5033288;28;20049;-61
2021/12/22 07:27:33;;;;;;;70.88;30.27;;;;;;;;;;5033296;28;20022;-61
2021/12/22 07:30:02;;;;;;;66.97;30.33;;;;;;;;;;5033314;28;20028;-62
2021/12/22 07:32:28;;;;;;;68.80;29.95;;;;;;;;;;5031731;28;20029;-62
2021/12/22 07:34:57;;;;;;;80.75;30.17;;;;;;;;;;5032235;28;20026;-62
2021/12/22 07:37:34;;;;;;;59.00;26.15;;;;;;;;;;5031097;28;20078;-63
2021/12/22 07:40:00;;;;;;;55.10;22.52;;;;;;;;;;5033515;28;20475;-62
2021/12/22 07:42:26;;;;;;;53.72;23.70;;;;;;;;;;5033128;28;20033;-61
2021/12/22 07:44:53;;;;;;;52.00;25.20;;;;;;;;;;5033396;28;20022;-62
2021/12/22 07:47:19;;;;;;;49.40;24.85;;;;;;;;;;5033074;28;20037;-61
2021/12/22 07:49:45;;;;;;;51.90;22.98;;;;;;;;;;5033328;28;20483;-61
2021/12/22 07:52:11;;;;;;;55.92;26.67;;;;;;;;;;5032060;28;20047;-62
2021/12/22 07:54:39;;;;;;;63.15;28.60;;;;;;;;;;5033302;28;20026;-62
2021/12/22 07:57:06;;;;;;;59.75;27.75;;;;;;;;;;5032521;28;20025;-61
2021/12/22 07:59:32;;;;;;;68.80;31.63;;;;;;;;;;5031539;28;20035;-63
2021/12/22 08:01:58;;;;;;;73.07;33.80;;;;;;;;;;5033046;28;20125;-61
2021/12/22 08:04:24;;;;;;;78.22;34.80;;;;;;;;;;5033120;28;20405;-63
2021/12/22 08:06:51;;;;;;;76.30;34.13;;;;;;;;;;5032540;28;20480;-62
2021/12/22 08:09:17;;;;;;;66.53;31.60;;;;;;;;;;5033082;28;20029;-62
2021/12/22 08:11:43;;;;;;;77.43;33.83;;;;;;;;;;5033407;28;20029;-64
2021/12/22 08:14:09;;;;;;;57.08;27.20;;;;;;;;;;5032826;28;20026;-62
2021/12/22 08:16:36;;;;;;;68.65;29.52;;;;;;;;;;5032950;28;20498;-63
2021/12/22 08:19:02;;;;;;;66.78;30.15;;;;;;;;;;5032744;28;20029;-62
2021/12/22 08:21:28;;;;;;;74.18;31.33;;;;;;;;;;5032373;28;20033;-62
2021/12/22 08:23:54;;;;;;;150.60;68.05;;;;;;;;;;5032483;28;20068;-63
2021/12/22 08:26:20;;;;;;;87.43;42.15;;;;;;;;;;5033381;28;20029;-62
2021/12/22 08:28:49;;;;;;;101.97;45.90;;;;;;;;;;5036604;28;20061;-63
2021/12/22 08:31:15;;;;;;;88.95;39.17;;;;;;;;;;5036209;28;20029;-61
2021/12/22 08:33:45;;;;;;;77.60;35.28;;;;;;;;;;5037043;28;20026;-62
2021/12/22 08:39:00;;;;;;;91.00;40.28;;;;;;;;;;5036303;28;20457;-62
2021/12/22 08:41:26;;;;;;;82.00;38.92;;;;;;;;;;5036088;28;20094;-61
2021/12/22 08:43:53;;;;;;;94.05;43.97;;;;;;;;;;5036099;28;20022;-61
2021/12/22 08:46:20;;;;;;;97.53;43.90;;;;;;;;;;5036274;28;20032;-62
2021/12/22 08:48:46;;;;;;;66.88;30.70;;;;;;;;;;5035441;28;20040;-61
2021/12/22 08:51:30;;;;;;;59.92;25.55;;;;;;;;;;5035415;28;20024;-61
2021/12/22 08:54:00;;;;;;;66.68;27.73;;;;;;;;;;5035304;28;20078;-62
2021/12/22 08:56:27;;;;;;;63.22;27.77;;;;;;;;;;5035433;28;20465;-62
2021/12/22 08:58:54;;;;;;;67.57;30.58;;;;;;;;;;5034738;28;20467;-61
2021/12/22 09:01:21;;;;;;;65.93;29.05;;;;;;;;;;5035923;28;20029;-63
2021/12/22 09:03:47;;;;;;;72.70;32.72;;;;;;;;;;5035200;28;20026;-61
2021/12/22 09:06:17;;;;;;;74.63;31.33;;;;;;;;;;5035834;28;20017;-61
2021/12/22 09:08:44;;;;;;;91.88;43.53;;;;;;;;;;5035501;28;20090;-62
2021/12/22 09:11:11;;;;;;;104.43;44.17;;;;;;;;;;5034551;28;20021;-62
2021/12/22 09:13:38;;;;;;;82.05;34.80;;;;;;;;;;5033384;28;20025;-63
2021/12/22 09:16:05;;;;;;;72.38;33.85;;;;;;;;;;5033026;28;20045;-62
2021/12/22 09:18:31;;;;;;;77.05;35.85;;;;;;;;;;5034555;28;20022;-63
2021/12/22 09:20:57;;;;;;;74.70;34.60;;;;;;;;;;5034778;28;20025;-64
2021/12/22 09:23:24;;;;;;;93.68;42.85;;;;;;;;;;5034406;28;20018;-63
2021/12/22 09:25:50;;;;;;;82.88;37.05;;;;;;;;;;5034715;28;20120;-63
2021/12/22 09:28:16;;;;;;;92.45;37.15;;;;;;;;;;5035175;28;20027;-63
2021/12/22 09:30:43;;;;;;;68.97;34.65;;;;;;;;;;5032101;28;20024;-64
2021/12/22 09:33:16;;;;;;;75.40;33.58;;;;;;;;;;5035340;28;20014;-64
2021/12/22 09:35:44;;;;;;;78.28;36.95;;;;;;;;;;5035815;28;20028;-62
2021/12/22 09:38:11;;;;;;;83.10;38.17;;;;;;;;;;5037114;28;20033;-64
2021/12/22 09:40:37;;;;;;;94.03;40.88;;;;;;;;;;5037777;28;20384;-64
2021/12/22 09:43:04;;;;;;;83.88;39.17;;;;;;;;;;5037737;28;20049;-61
2021/12/22 09:45:30;;;;;;;79.88;38.28;;;;;;;;;;5036045;28;20026;-62
2021/12/22 09:53:29;;;;;;;75.90;36.58;;;;;;;;;;5026175;28;20033;-63
2021/12/22 09:55:56;;;;;;;75.97;36.05;;;;;;;;;;5035370;28;20029;-64
2021/12/22 09:58:23;;;;;;;68.30;33.95;;;;;;;;;;5033133;28;20507;-62
2021/12/22 10:00:50;;;;;;;71.60;36.95;;;;;;;;;;5024077;28;20036;-63
2021/12/22 10:03:16;;;;;;;71.25;34.88;;;;;;;;;;5034511;28;20013;-63
2021/12/22 10:05:44;;;;;;;79.00;35.78;;;;;;;;;;5034074;28;20500;-63
2021/12/22 10:08:16;;;;;;;81.00;37.78;;;;;;;;;;5032541;28;20032;-63
2021/12/22 10:10:44;;;;;;;75.30;36.92;;;;;;;;;;5033369;28;20108;-63
2021/12/22 10:13:12;;;;;;;74.57;37.08;;;;;;;;;;5032748;28;20602;-64
2021/12/22 10:15:38;;;;;;;78.75;37.92;;;;;;;;;;5034321;28;20490;-63
2021/12/22 10:18:12;;;;;;;69.40;35.53;;;;;;;;;;5034468;28;20028;-63
2021/12/22 10:20:39;;;;;;;76.53;37.50;;;;;;;;;;5033735;28;20030;-62
2021/12/22 10:23:20;;;;;;;72.57;35.25;;;;;;;;;;5034094;28;20021;-61
2021/12/22 10:25:46;;;;;;;;;;;;;;;;;;5035161;28;20049;-62
2021/12/22 10:28:18;;;;;;;58.63;30.73;;;;;;;;;;5033798;28;19905;-63
2021/12/22 10:30:43;;;;;;;;;;;;;;;;;;5034731;28;20104;-63
2021/12/22 10:33:29;;;;;;;41.35;21.13;;;;;;;;;;5033713;28;19940;-64
2021/12/22 10:35:56;;;;;;;41.50;20.00;;;;;;;;;;5034620;28;20109;-63
2021/12/22 10:38:25;;;;;;;48.47;23.67;;;;;;;;;;5034369;28;20067;-63
2021/12/22 10:40:52;;;;;;;41.70;19.63;;;;;;;;;;5033782;28;20026;-63
2021/12/22 10:43:29;;;;;;;28.60;15.02;;;;;;;;;;5034037;28;20036;-62
2021/12/22 10:45:57;;;;;;;44.40;17.88;;;;;;;;;;5034132;28;20018;-62
2021/12/22 10:51:11;;;;;;;37.40;18.85;;;;;;;;;;5033803;28;20036;-62
2021/12/22 10:53:42;;;;;;;37.33;17.48;;;;;;;;;;5033682;28;20400;-63
2021/12/22 10:56:08;;;;;;;33.88;18.13;;;;;;;;;;5033131;28;20025;-62
2021/12/22 10:58:34;;;;;;;34.15;16.35;;;;;;;;;;5032039;28;20029;-64
2021/12/22 11:01:17;;;;;;;134.55;46.15;;;;;;;;;;5032274;28;20413;-64
2021/12/22 11:03:50;;;;;;;50.63;23.40;;;;;;;;;;5032216;28;20036;-63
2021/12/22 11:06:23;;;;;;;27.73;14.10;;;;;;;;;;5031244;28;20025;-62
2021/12/22 11:08:52;;;;;;;24.25;12.25;;;;;;;;;;5033244;28;20034;-63
2021/12/22 11:11:33;;;;;;;46.70;19.75;;;;;;;;;;5033002;28;20088;-63
2021/12/22 11:14:08;;;;;;;22.33;10.48;;;;;;;;;;5032029;28;20028;-62
2021/12/22 11:16:56;;;;;;;20.50;10.50;;;;;;;;;;5032524;28;20033;-63
2021/12/22 11:19:25;;;;;;;27.02;11.55;;;;;;;;;;5033298;28;20442;-63
2021/12/22 11:22:00;;;;;;;30.65;15.40;;;;;;;;;;5033223;28;20030;-64
2021/12/22 11:24:27;;;;;;;26.92;13.95;;;;;;;;;;5032738;28;20049;-64
2021/12/22 11:26:54;;;;;;;25.77;13.45;;;;;;;;;;5032702;28;20103;-62
2021/12/22 11:29:21;;;;;;;22.02;11.02;;;;;;;;;;5032680;28;20083;-62
2021/12/22 11:31:48;;;;;;;20.63;10.35;;;;;;;;;;5033086;28;20034;-62
2021/12/22 11:34:18;;;;;;;22.15;11.82;;;;;;;;;;5033128;28;20032;-63
2021/12/22 11:36:45;;;;;;;27.60;13.15;;;;;;;;;;5032277;28;20025;-62
2021/12/22 11:39:11;;;;;;;31.15;16.25;;;;;;;;;;5033088;28;20029;-63
2021/12/22 11:41:54;;;;;;;45.47;19.27;;;;;;;;;;5032313;28;20064;-62
2021/12/22 11:44:22;;;;;;;41.15;16.92;;;;;;;;;;5033216;28;20029;-62
2021/12/22 11:46:48;;;;;;;36.75;16.63;;;;;;;;;;5033564;28;20159;-61
2021/12/22 11:49:19;;;;;;;30.23;15.40;;;;;;;;;;5032779;28;20036;-63
2021/12/22 11:51:46;;;;;;;27.10;14.80;;;;;;;;;;5031382;28;20350;-63
2021/12/22 11:54:12;;;;;;;26.35;14.05;;;;;;;;;;5033216;28;20026;-63
2021/12/22 11:56:44;;;;;;;29.00;13.02;;;;;;;;;;5032905;28;20537;-62
2021/12/22 11:59:29;;;;;;;22.27;11.40;;;;;;;;;;5032709;28;20120;-62
2021/12/22 12:02:13;;;;;;;24.50;12.02;;;;;;;;;;5036173;28;20108;-63
2021/12/22 12:04:40;;;;;;;35.17;16.70;;;;;;;;;;5036594;28;20022;-61
2021/12/22 12:07:06;;;;;;;33.78;16.15;;;;;;;;;;5036885;28;20403;-62
2021/12/22 12:09:32;;;;;;;31.95;15.85;;;;;;;;;;5036948;28;20044;-62
2021/12/22 12:11:58;;;;;;;43.55;19.92;;;;;;;;;;5036723;28;20025;-63
2021/12/22 12:23:15;;;;;;;23.77;11.50;;;;;;;;;;5036274;28;20054;-63
2021/12/22 12:25:41;;;;;;;26.33;11.77;;;;;;;;;;5033378;28;20063;-64
2021/12/22 12:28:15;;;;;;;23.30;11.60;;;;;;;;;;5035610;28;20418;-62
2021/12/22 12:30:45;;;;;;;32.88;12.88;;;;;;;;;;5033467;28;20020;-63
2021/12/22 12:33:13;;;;;;;29.92;14.32;;;;;;;;;;5035615;28;20022;-62
2021/12/22 12:35:48;;;;;;;22.77;12.30;;;;;;;;;;5033058;28;20029;-62
2021/12/22 12:38:19;;;;;;;27.55;12.20;;;;;;;;;;5035825;28;20033;-62
2021/12/22 12:40:45;;;;;;;;;;;;;;;;;;5036059;28;20075;-62
2021/12/22 12:43:12;;;;;;;20.48;11.43;;;;;;;;;;5036175;28;19914;-63
2021/12/22 12:45:48;;;;;;;25.63;13.30;;;;;;;;;;5032992;28;20032;-64
2021/12/22 12:48:28;;;;;;;25.13;12.75;;;;;;;;;;5035554;28;20104;-63
2021/12/22 12:51:13;;;;;;;36.92;16.92;;;;;;;;;;5035364;28;20029;-62
2021/12/22 12:53:40;;;;;;;28.85;13.73;;;;;;;;;;5032649;28;20030;-64
2021/12/22 12:56:08;;;;;;;24.27;12.77;;;;;;;;;;5035664;28;20021;-62
2021/12/22 12:58:34;;;;;;;22.80;11.90;;;;;;;;;;5035268;28;20100;-64
2021/12/22 13:01:00;;;;;;;23.92;11.90;;;;;;;;;;5035312;28;20345;-62
2021/12/22 13:03:27;;;;;;;21.50;11.48;;;;;;;;;;5035848;28;20025;-64
2021/12/22 13:05:53;;;;;;;25.92;13.23;;;;;;;;;;5035182;28;20365;-64
2021/12/22 13:08:19;;;;;;;25.08;13.00;;;;;;;;;;5034939;28;20031;-65
2021/12/22 13:10:51;;;;;;;26.98;14.15;;;;;;;;;;5034947;28;20056;-64
2021/12/22 13:13:30;;;;;;;25.60;13.27;;;;;;;;;;5031851;28;20087;-63
2021/12/22 13:15:56;;;;;;;23.10;11.35;;;;;;;;;;5035049;28;20029;-63
2021/12/22 13:18:26;;;;;;;30.27;12.95;;;;;;;;;;5032204;28;20078;-64
2021/12/22 13:20:55;;;;;;;25.95;13.32;;;;;;;;;;5035459;28;20032;-63
2021/12/22 13:23:23;;;;;;;34.22;14.70;;;;;;;;;;5035144;28;20017;-63
2021/12/22 13:25:50;;;;;;;38.88;16.13;;;;;;;;;;5036091;28;20049;-63
2021/12/22 13:28:21;;;;;;;37.80;21.85;;;;;;;;;;5035368;28;20105;-62
2021/12/22 13:30:51;;;;;;;29.35;14.57;;;;;;;;;;5035709;28;20026;-62
2021/12/22 13:33:21;;;;;;;28.85;14.50;;;;;;;;;;5035547;28;20028;-63
2021/12/22 13:35:54;;;;;;;33.67;16.73;;;;;;;;;;5034436;28;20017;-64
2021/12/22 13:38:28;;;;;;;32.90;14.82;;;;;;;;;;5034736;28;20038;-63
2021/12/22 13:40:54;;;;;;;38.42;17.33;;;;;;;;;;5034916;28;20028;-65
2021/12/22 13:43:34;;;;;;;32.45;15.45;;;;;;;;;;5034696;28;20371;-62
2021/12/22 13:46:09;;;;;;;28.40;15.70;;;;;;;;;;5034832;28;20029;-63
2021/12/22 13:48:38;;;;;;;39.58;15.90;;;;;;;;;;5035416;28;20483;-63
2021/12/22 13:51:06;;;;;;;32.13;15.55;;;;;;;;;;5034862;28;20472;-62
2021/12/22 13:53:33;;;;;;;42.20;17.50;;;;;;;;;;5034732;28;20026;-63
2021/12/22 13:56:00;;;;;;;36.20;17.48;;;;;;;;;;5034178;28;20033;-63
2021/12/22 13:58:32;;;;;;;48.30;20.35;;;;;;;;;;5034695;28;20088;-63
2021/12/22 14:01:15;;;;;;;41.45;17.85;;;;;;;;;;5034054;28;20391;-63
2021/12/22 14:03:42;;;;;;;37.60;18.08;;;;;;;;;;5031311;28;20029;-61
2021/12/22 14:06:09;;;;;;;36.92;16.60;;;;;;;;;;5033423;28;20017;-64
2021/12/22 14:08:36;;;;;;;33.50;16.77;;;;;;;;;;5030916;28;20030;-63
2021/12/22 14:11:03;;;;;;;41.08;18.02;;;;;;;;;;5033561;28;20021;-63
2021/12/22 14:13:29;;;;;;;43.53;21.52;;;;;;;;;;5035151;28;20379;-64
2021/12/22 14:15:56;;;;;;;41.42;18.45;;;;;;;;;;5035201;28;20025;-62
2021/12/22 14:18:33;;;;;;;49.53;22.10;;;;;;;;;;5033966;28;20041;-62
2021/12/22 14:20:59;;;;;;;37.25;17.30;;;;;;;;;;5034696;28;20029;-64
2021/12/22 14:23:26;;;;;;;39.60;16.73;;;;;;;;;;5034015;28;20030;-63
2021/12/22 14:26:04;;;;;;;38.55;19.38;;;;;;;;;;5033416;28;20045;-63
2021/12/22 14:28:30;;;;;;;40.03;18.17;;;;;;;;;;5034120;28;20025;-64
2021/12/22 14:31:05;;;;;;;45.30;18.80;;;;;;;;;;5034344;28;20101;-64
2021/12/22 14:33:31;;;;;;;41.50;18.60;;;;;;;;;;5034213;28;20464;-64
2021/12/22 14:36:03;;;;;;;37.83;18.90;;;;;;;;;;5034516;28;20100;-64
2021/12/22 14:38:32;;;;;;;;;;;;;;;;;;5034764;28;20037;-63
2021/12/22 14:40:59;;;;;;;39.70;17.17;;;;;;;;;;5034130;28;20294;-63
2021/12/22 14:43:41;;;;;;;44.80;19.92;;;;;;;;;;5034028;28;20076;-64
2021/12/22 14:46:08;;;;;;;47.80;21.27;;;;;;;;;;5033720;28;20026;-63
2021/12/22 14:48:38;;;;;;;49.75;25.23;;;;;;;;;;5035417;28;20033;-64
2021/12/22 14:51:19;;;;;;;45.20;20.95;;;;;;;;;;5035739;28;20036;-64
2021/12/22 14:54:03;;;;;;;44.13;21.10;;;;;;;;;;5035411;28;20036;-64
2021/12/22 14:56:50;;;;;;;41.25;23.67;;;;;;;;;;5034972;28;20014;-63
2021/12/22 14:59:16;;;;;;;42.47;22.27;;;;;;;;;;5033880;28;20117;-63
2021/12/22 15:01:43;;;;;;;50.42;22.73;;;;;;;;;;5034152;28;20056;-63